createdAt,value
2023-05-10T00:02:05.177Z,2.83
2023-05-10T00:04:31.954Z,2.70
2023-05-10T00:06:58.614Z,2.60
2023-05-10T00:09:25.476Z,2.70
2023-05-10T00:11:52.152Z,2.92
2023-05-10T00:14:19.567Z,2.90
2023-05-10T00:16:46.495Z,2.88
2023-05-10T00:19:13.547Z,2.65
2023-05-10T00:21:40.425Z,3.03
2023-05-10T00:24:07.188Z,3.05
2023-05-10T00:26:34.010Z,2.80
2023-05-10T00:29:01.101Z,3.10
2023-05-10T00:31:27.992Z,2.90
2023-05-10T00:33:54.719Z,3.13
2023-05-10T00:36:22.131Z,2.85
2023-05-10T00:38:48.852Z,3.10
2023-05-10T00:41:15.552Z,3.05
2023-05-10T00:43:42.326Z,3.20
2023-05-10T00:46:09.207Z,3.30
2023-05-10T00:48:35.984Z,3.17
2023-05-10T00:51:03.119Z,2.95
2023-05-10T00:53:30.387Z,3.40
2023-05-10T00:55:57.118Z,3.25
2023-05-10T00:58:25.210Z,3.20
2023-05-10T01:00:52.405Z,3.40
2023-05-10T01:03:19.521Z,3.20
2023-05-10T01:05:46.333Z,3.40
2023-05-10T01:08:13.078Z,3.72
2023-05-10T01:10:39.877Z,3.33
2023-05-10T01:13:06.667Z,3.30
2023-05-10T01:15:33.436Z,3.60
2023-05-10T01:18:00.872Z,4.10
2023-05-10T01:20:31.122Z,3.72
2023-05-10T01:23:29.773Z,4.30
2023-05-10T01:26:16.335Z,4.00
2023-05-10T01:29:15.736Z,4.13
2023-05-10T01:32:22.707Z,3.92
2023-05-10T01:34:58.980Z,4.18
2023-05-10T01:37:32.679Z,4.25
2023-05-10T01:40:04.729Z,4.00
2023-05-10T01:42:38.398Z,4.35
2023-05-10T01:45:42.520Z,4.50
2023-05-10T01:48:12.544Z,4.18
2023-05-10T01:50:41.911Z,4.00
2023-05-10T01:53:09.755Z,4.40
2023-05-10T01:55:41.388Z,4.10
2023-05-10T01:58:10.660Z,4.50
2023-05-10T02:00:38.714Z,4.47
2023-05-10T02:03:08.223Z,4.05
2023-05-10T02:05:35.629Z,4.57
2023-05-10T02:08:03.069Z,4.63
2023-05-10T02:10:30.698Z,4.70
2023-05-10T02:13:00.266Z,4.85
2023-05-10T02:15:27.959Z,5.13
2023-05-10T02:17:57.227Z,5.90
2023-05-10T02:20:24.989Z,5.07
2023-05-10T02:22:53.280Z,5.20
2023-05-10T02:25:21.732Z,4.70
2023-05-10T02:27:49.222Z,4.97
2023-05-10T02:30:17.479Z,5.15
2023-05-10T02:32:45.076Z,5.00
2023-05-10T02:35:12.490Z,5.05
2023-05-10T02:37:40.177Z,5.50
2023-05-10T02:40:08.116Z,5.00
2023-05-10T02:42:37.559Z,5.25
2023-05-10T02:45:08.483Z,5.43
2023-05-10T02:47:35.649Z,5.18
2023-05-10T02:50:02.369Z,5.80
2023-05-10T02:52:32.281Z,5.90
2023-05-10T02:55:02.567Z,6.40
2023-05-10T02:57:33.761Z,5.93
2023-05-10T03:00:01.553Z,6.18
2023-05-10T03:02:28.718Z,5.60
2023-05-10T03:04:55.555Z,6.22
2023-05-10T03:07:22.562Z,6.03
2023-05-10T03:09:50.361Z,6.03
2023-05-10T03:12:43.819Z,5.82
2023-05-10T03:15:33.130Z,5.78
2023-05-10T03:18:12.455Z,5.63
2023-05-10T03:20:57.911Z,6.22
2023-05-10T03:23:30.619Z,5.40
2023-05-10T03:25:57.918Z,5.60
2023-05-10T03:28:26.459Z,5.30
2023-05-10T03:30:54.250Z,5.80
2023-05-10T03:33:21.394Z,5.88
2023-05-10T03:35:48.204Z,5.35
2023-05-10T03:38:15.017Z,5.13
2023-05-10T03:40:41.916Z,5.50
2023-05-10T03:43:08.893Z,5.50
2023-05-10T03:45:35.959Z,5.47
2023-05-10T03:48:02.706Z,6.00
2023-05-10T03:50:29.414Z,5.97
2023-05-10T03:52:56.394Z,5.75
2023-05-10T03:55:23.806Z,5.50
2023-05-10T03:57:55.023Z,5.82
2023-05-10T04:00:21.720Z,5.97
2023-05-10T04:02:48.582Z,5.65
2023-05-10T04:05:15.764Z,6.20
2023-05-10T04:07:42.594Z,6.32
2023-05-10T04:10:09.867Z,5.90
2023-05-10T04:12:36.692Z,5.90
2023-05-10T04:15:03.812Z,6.25
2023-05-10T04:17:30.586Z,6.47
2023-05-10T04:19:57.307Z,6.22
2023-05-10T04:22:24.008Z,6.15
2023-05-10T04:24:50.818Z,6.68
2023-05-10T04:27:17.587Z,6.55
2023-05-10T04:29:44.319Z,6.45
2023-05-10T04:32:11.693Z,6.93
2023-05-10T04:34:38.600Z,7.13
2023-05-10T04:37:05.701Z,7.32
2023-05-10T04:39:32.407Z,7.53
2023-05-10T04:41:59.098Z,7.45
2023-05-10T04:44:26.315Z,7.60
2023-05-10T04:46:53.316Z,7.70
2023-05-10T04:49:19.990Z,7.80
2023-05-10T04:51:46.671Z,7.45
2023-05-10T04:54:13.456Z,7.90
2023-05-10T04:56:40.438Z,7.78
2023-05-10T04:59:07.125Z,7.85
2023-05-10T05:01:34.330Z,7.90
2023-05-10T05:04:01.402Z,8.13
2023-05-10T05:06:28.662Z,8.07
2023-05-10T05:08:55.426Z,7.53
2023-05-10T05:11:22.402Z,7.93
2023-05-10T05:13:49.124Z,6.80
2023-05-10T05:16:16.424Z,7.43
2023-05-10T05:18:43.213Z,7.55
2023-05-10T05:21:19.876Z,7.40
2023-05-10T05:23:47.014Z,6.85
2023-05-10T05:26:14.076Z,6.25
2023-05-10T05:28:40.806Z,2.83
2023-05-10T05:31:11.560Z,2.00
2023-05-10T05:33:38.981Z,1.38
2023-05-10T05:36:06.825Z,1.65
2023-05-10T05:38:33.697Z,1.70
2023-05-10T05:41:00.832Z,0.98
2023-05-10T05:43:27.613Z,0.82
2023-05-10T05:45:55.184Z,0.90
2023-05-10T05:48:22.375Z,1.08
2023-05-10T05:50:49.203Z,1.13
2023-05-10T05:53:16.529Z,1.02
2023-05-10T05:56:03.811Z,1.00
2023-05-10T05:58:30.588Z,1.13
2023-05-10T06:00:57.646Z,0.80
2023-05-10T06:03:24.509Z,0.90
2023-05-10T06:05:51.253Z,0.77
2023-05-10T06:08:18.019Z,0.90
2023-05-10T06:10:45.893Z,0.80
2023-05-10T06:13:12.808Z,0.90
2023-05-10T06:15:40.069Z,0.90
2023-05-10T06:18:07.749Z,0.60
2023-05-10T06:20:34.846Z,0.80
2023-05-10T06:23:01.727Z,0.70
2023-05-10T06:25:28.578Z,0.60
2023-05-10T06:27:58.657Z,0.70
2023-05-10T06:30:28.723Z,0.60
2023-05-10T06:32:56.266Z,0.57
2023-05-10T06:35:23.271Z,0.40
2023-05-10T06:37:52.288Z,0.60
2023-05-10T06:40:19.578Z,0.60
2023-05-10T06:42:47.572Z,0.43
2023-05-10T06:45:16.203Z,0.70
2023-05-10T06:47:43.378Z,0.50
2023-05-10T06:50:10.907Z,0.50
2023-05-10T06:52:37.694Z,0.50
2023-05-10T06:55:05.821Z,0.50
2023-05-10T06:57:33.124Z,0.45
2023-05-10T07:00:00.716Z,0.50
2023-05-10T07:02:27.762Z,0.55
2023-05-10T07:04:54.703Z,0.40
2023-05-10T07:07:21.630Z,0.40
2023-05-10T07:09:48.523Z,0.40
2023-05-10T07:12:15.855Z,0.30
2023-05-10T07:14:43.487Z,0.40
2023-05-10T07:17:10.669Z,0.40
2023-05-10T07:19:37.580Z,0.50
2023-05-10T07:22:04.512Z,0.40
2023-05-10T07:24:33.177Z,0.50
2023-05-10T07:27:00.113Z,0.50
2023-05-10T07:29:27.346Z,0.50
2023-05-10T07:31:57.868Z,0.40
2023-05-10T07:34:25.876Z,0.47
2023-05-10T07:36:53.094Z,0.40
2023-05-10T07:39:26.468Z,0.50
2023-05-10T07:41:55.457Z,0.80
2023-05-10T07:44:22.419Z,0.60
2023-05-10T07:46:49.996Z,0.40
2023-05-10T07:49:17.567Z,0.50
2023-05-10T07:51:44.754Z,0.60
2023-05-10T07:54:11.645Z,0.50
2023-05-10T07:56:38.623Z,0.40
2023-05-10T07:59:06.374Z,0.40
2023-05-10T08:01:34.371Z,0.68
2023-05-10T08:04:01.509Z,0.70
2023-05-10T08:06:31.243Z,0.73
2023-05-10T08:08:58.288Z,0.55
2023-05-10T08:11:25.162Z,0.60
2023-05-10T08:13:52.771Z,0.55
2023-05-10T08:16:19.823Z,1.73
2023-05-10T08:18:48.551Z,0.68
2023-05-10T08:21:16.082Z,0.52
2023-05-10T08:23:44.947Z,0.60
2023-05-10T08:26:12.184Z,0.70
2023-05-10T08:28:39.105Z,0.55
2023-05-10T08:31:06.874Z,0.70
2023-05-10T08:33:34.022Z,0.80
2023-05-10T08:36:01.157Z,0.60
2023-05-10T08:38:27.973Z,0.70
2023-05-10T08:40:57.886Z,0.70
2023-05-10T08:43:28.666Z,0.93
2023-05-10T08:45:57.159Z,1.30
2023-05-10T08:48:27.929Z,0.93
2023-05-10T08:50:58.781Z,0.70
2023-05-10T08:53:27.920Z,0.60
2023-05-10T08:55:54.644Z,0.70
2023-05-10T08:58:21.646Z,0.70
2023-05-10T09:00:50.595Z,0.80
2023-05-10T09:03:17.925Z,0.93
2023-05-10T09:05:46.029Z,0.77
2023-05-10T09:08:14.201Z,0.70
2023-05-10T09:10:41.298Z,1.13
2023-05-10T09:13:09.255Z,1.20
2023-05-10T09:15:35.989Z,0.95
2023-05-10T09:18:03.896Z,0.90
2023-05-10T09:20:30.730Z,1.10
2023-05-10T09:22:57.428Z,1.05
2023-05-10T09:25:24.953Z,0.80
2023-05-10T09:27:53.557Z,1.17
2023-05-10T09:30:33.126Z,1.02
2023-05-10T09:33:00.941Z,1.13
2023-05-10T09:35:34.939Z,1.10
2023-05-10T09:38:04.864Z,0.90
2023-05-10T09:40:32.640Z,0.80
2023-05-10T09:43:08.733Z,0.98
2023-05-10T09:45:38.606Z,0.75
2023-05-10T09:48:06.428Z,0.80
2023-05-10T09:50:33.442Z,0.90
2023-05-10T09:53:02.768Z,0.63
2023-05-10T09:55:46.157Z,0.70
2023-05-10T09:58:13.896Z,0.90
2023-05-10T10:00:42.666Z,0.75
2023-05-10T10:03:21.178Z,0.90
2023-05-10T10:05:49.143Z,0.80
2023-05-10T10:08:17.351Z,0.73
2023-05-10T10:10:47.302Z,0.90
2023-05-10T10:13:14.817Z,0.90
2023-05-10T10:15:42.776Z,0.80
2023-05-10T10:18:14.315Z,1.08
2023-05-10T10:20:41.691Z,0.85
2023-05-10T10:23:09.536Z,0.73
2023-05-10T10:25:36.868Z,0.80
2023-05-10T10:28:12.514Z,0.70
2023-05-10T10:30:49.229Z,0.90
2023-05-10T10:33:37.955Z,0.80
2023-05-10T10:36:05.416Z,0.75
2023-05-10T10:39:00.911Z,0.80
2023-05-10T10:41:51.083Z,0.70
2023-05-10T10:44:38.209Z,0.70
2023-05-10T10:47:07.557Z,0.60
2023-05-10T10:49:38.895Z,1.33
2023-05-10T10:52:23.267Z,0.70
2023-05-10T10:54:54.765Z,0.70
2023-05-10T10:57:23.219Z,0.70
2023-05-10T10:59:50.139Z,0.70
2023-05-10T11:02:44.314Z,0.80
2023-05-10T11:05:40.114Z,0.70
2023-05-10T11:08:31.373Z,0.70
2023-05-10T11:11:08.467Z,0.80
2023-05-10T11:13:47.855Z,0.73
2023-05-10T11:16:26.656Z,0.70
2023-05-10T11:19:05.184Z,0.70
2023-05-10T11:21:32.987Z,0.80
2023-05-10T11:24:01.328Z,0.60
2023-05-10T11:26:36.775Z,0.60
2023-05-10T11:29:05.764Z,0.80
2023-05-10T11:31:32.788Z,0.80
2023-05-10T11:34:01.268Z,0.98
2023-05-10T11:36:29.905Z,0.80
2023-05-10T11:38:57.948Z,0.73
2023-05-10T11:41:25.941Z,0.80
2023-05-10T11:43:54.532Z,0.70
2023-05-10T11:46:23.430Z,0.90
2023-05-10T11:48:55.150Z,1.00
2023-05-10T11:51:26.457Z,0.65
2023-05-10T11:54:00.801Z,0.82
2023-05-10T11:56:27.790Z,0.90
2023-05-10T11:58:58.904Z,0.80
2023-05-10T12:01:27.480Z,1.30
2023-05-10T12:03:56.481Z,1.00
2023-05-10T12:06:23.553Z,1.00
2023-05-10T12:08:54.001Z,1.10
2023-05-10T12:11:23.105Z,1.10
2023-05-10T12:13:51.157Z,0.93
2023-05-10T12:16:29.900Z,0.80
2023-05-10T12:19:01.402Z,1.08
2023-05-10T12:21:30.143Z,1.00
2023-05-10T12:24:01.536Z,0.98
2023-05-10T12:26:29.305Z,0.82
2023-05-10T12:28:56.613Z,0.90
2023-05-10T12:31:23.508Z,0.77
2023-05-10T12:33:50.705Z,0.90
2023-05-10T12:36:17.882Z,0.93
2023-05-10T12:38:49.164Z,0.90
2023-05-10T12:41:17.674Z,0.90
2023-05-10T12:43:44.882Z,1.00
2023-05-10T12:46:17.496Z,0.90
2023-05-10T12:48:45.190Z,1.05
2023-05-10T12:51:14.415Z,0.90
2023-05-10T12:53:43.712Z,1.38
2023-05-10T12:56:12.233Z,0.85
2023-05-10T12:58:39.638Z,1.38
2023-05-10T13:01:06.712Z,2.45
2023-05-10T13:03:33.793Z,1.13
2023-05-10T13:06:00.498Z,1.05
2023-05-10T13:08:27.485Z,1.30
2023-05-10T13:10:54.497Z,1.00
2023-05-10T13:13:21.348Z,0.80
2023-05-10T13:15:48.514Z,0.98
2023-05-10T13:18:15.307Z,0.93
2023-05-10T13:20:42.211Z,0.90
2023-05-10T13:23:09.208Z,0.90
2023-05-10T13:25:36.009Z,0.85
2023-05-10T13:28:03.183Z,0.77
2023-05-10T13:30:30.315Z,0.93
2023-05-10T13:32:57.150Z,0.73
2023-05-10T13:35:24.183Z,0.80
2023-05-10T13:37:50.922Z,1.00
2023-05-10T13:40:17.993Z,0.70
2023-05-10T13:42:45.125Z,0.75
2023-05-10T13:45:13.431Z,0.82
2023-05-10T13:47:40.286Z,0.88
2023-05-10T13:50:07.927Z,0.80
2023-05-10T13:52:34.839Z,0.70
2023-05-10T13:55:02.612Z,0.60
2023-05-10T13:57:30.422Z,0.70
2023-05-10T13:59:58.625Z,0.90
2023-05-10T14:02:25.924Z,0.68
2023-05-10T14:04:52.854Z,0.85
2023-05-10T14:07:19.729Z,1.00
2023-05-10T14:09:46.485Z,0.80
2023-05-10T14:12:13.244Z,1.00
2023-05-10T14:14:40.305Z,0.93
2023-05-10T14:17:08.692Z,0.70
2023-05-10T14:19:36.669Z,0.80
2023-05-10T14:22:04.125Z,0.90
2023-05-10T14:24:30.924Z,1.00
2023-05-10T14:26:57.986Z,0.95
2023-05-10T14:29:24.821Z,0.90
2023-05-10T14:31:51.721Z,1.13
2023-05-10T14:34:18.647Z,1.27
2023-05-10T14:36:45.410Z,1.00
2023-05-10T14:39:14.025Z,1.00
2023-05-10T14:41:42.749Z,1.77
2023-05-10T14:44:09.859Z,2.55
2023-05-10T14:46:36.774Z,3.65
2023-05-10T14:49:03.745Z,4.18
2023-05-10T14:51:30.482Z,4.45
2023-05-10T14:53:57.702Z,2.35
2023-05-10T14:56:24.404Z,1.67
2023-05-10T14:58:51.425Z,1.50
2023-05-10T15:01:18.799Z,1.30
2023-05-10T15:03:45.917Z,1.73
2023-05-10T15:06:14.869Z,1.70
2023-05-10T15:08:41.593Z,1.80
2023-05-10T15:11:08.402Z,1.45
2023-05-10T15:13:35.158Z,1.80
2023-05-10T15:16:02.653Z,1.42
2023-05-10T15:18:29.562Z,1.75
2023-05-10T15:20:56.695Z,1.60
2023-05-10T15:23:23.407Z,1.48
2023-05-10T15:25:51.552Z,1.60
2023-05-10T15:28:18.365Z,1.38
2023-05-10T15:30:45.329Z,1.33
2023-05-10T15:33:12.155Z,1.35
2023-05-10T15:35:40.720Z,1.20
2023-05-10T15:38:07.449Z,1.33
2023-05-10T15:40:34.184Z,1.30
2023-05-10T15:43:00.960Z,1.30
2023-05-10T15:45:27.936Z,1.20
2023-05-10T15:47:54.679Z,1.58
2023-05-10T15:50:21.410Z,1.50
2023-05-10T15:52:48.209Z,1.52
2023-05-10T15:55:15.467Z,1.20
2023-05-10T15:57:43.922Z,1.45
2023-05-10T16:00:12.153Z,1.67
2023-05-10T16:02:40.044Z,1.63
2023-05-10T16:05:07.396Z,1.70
2023-05-10T16:07:34.611Z,1.73
2023-05-10T16:10:04.632Z,1.70
2023-05-10T16:12:31.960Z,1.50
2023-05-10T16:15:02.172Z,1.85
2023-05-10T16:17:29.105Z,1.77
2023-05-10T16:19:56.019Z,2.00
2023-05-10T16:22:22.833Z,1.90
2023-05-10T16:24:50.001Z,1.52
2023-05-10T16:27:17.160Z,1.40
2023-05-10T16:29:43.903Z,1.70
2023-05-10T16:32:10.784Z,1.50
2023-05-10T16:34:37.562Z,1.60
2023-05-10T16:37:04.258Z,1.38
2023-05-10T16:39:31.002Z,1.67
2023-05-10T16:41:57.771Z,1.65
2023-05-10T16:44:25.951Z,1.58
2023-05-10T16:46:53.441Z,1.95
2023-05-10T16:49:20.194Z,1.98
2023-05-10T16:51:47.036Z,1.85
2023-05-10T16:54:13.973Z,1.50
2023-05-10T16:56:41.360Z,1.60
2023-05-10T16:59:08.861Z,1.52
2023-05-10T17:01:35.727Z,1.65
2023-05-10T17:04:03.015Z,1.63
2023-05-10T17:06:30.232Z,1.67
2023-05-10T17:08:57.508Z,1.50
2023-05-10T17:11:24.504Z,1.80
2023-05-10T17:13:52.689Z,1.90
2023-05-10T17:16:21.156Z,1.88
2023-05-10T17:18:48.175Z,1.65
2023-05-10T17:21:14.972Z,1.60
2023-05-10T17:23:42.047Z,1.77
2023-05-10T17:26:08.960Z,1.67
2023-05-10T17:28:35.685Z,1.90
2023-05-10T17:31:03.053Z,1.52
2023-05-10T17:33:29.839Z,1.85
2023-05-10T17:35:57.028Z,1.77
2023-05-10T17:38:23.855Z,1.77
2023-05-10T17:40:51.546Z,2.05
2023-05-10T17:43:18.294Z,2.40
2023-05-10T17:45:48.300Z,2.20
2023-05-10T17:48:15.138Z,2.20
2023-05-10T17:50:43.636Z,2.40
2023-05-10T17:53:10.764Z,2.10
2023-05-10T17:55:40.695Z,2.13
2023-05-10T17:58:07.633Z,2.05
2023-05-10T18:00:34.399Z,1.92
2023-05-10T18:03:01.910Z,2.53
2023-05-10T18:05:28.784Z,2.10
2023-05-10T18:07:55.868Z,2.47
2023-05-10T18:10:24.249Z,2.20
2023-05-10T18:12:51.904Z,2.30
2023-05-10T18:15:18.968Z,2.22
2023-05-10T18:17:45.879Z,2.53
2023-05-10T18:20:13.278Z,2.60
2023-05-10T18:22:40.490Z,2.80
2023-05-10T18:25:08.216Z,2.17
2023-05-10T18:27:35.233Z,2.35
2023-05-10T18:30:02.129Z,2.33
2023-05-10T18:32:28.832Z,2.33
2023-05-10T18:34:56.845Z,2.22
2023-05-10T18:37:23.661Z,2.45
2023-05-10T18:39:50.837Z,2.95
2023-05-10T18:42:18.009Z,3.08
2023-05-10T18:44:44.823Z,3.15
2023-05-10T18:47:11.513Z,3.70
2023-05-10T18:49:38.351Z,3.40
2023-05-10T18:52:05.106Z,3.45
2023-05-10T18:54:31.776Z,3.38
2023-05-10T18:56:59.177Z,3.33
2023-05-10T18:59:28.157Z,3.00
2023-05-10T19:01:57.096Z,3.22
2023-05-10T19:04:25.970Z,2.90
2023-05-10T19:06:53.230Z,3.00
2023-05-10T19:09:20.851Z,3.05
2023-05-10T19:11:47.896Z,2.65
2023-05-10T19:14:14.779Z,3.00
2023-05-10T19:16:41.687Z,2.63
2023-05-10T19:19:08.787Z,2.72
2023-05-10T19:21:36.014Z,2.70
2023-05-10T19:24:02.786Z,2.60
2023-05-10T19:26:29.832Z,2.75
2023-05-10T19:28:58.016Z,2.42
2023-05-10T19:31:25.056Z,2.88
2023-05-10T19:33:53.286Z,2.72
2023-05-10T19:36:20.578Z,2.70
2023-05-10T19:38:47.393Z,2.60
2023-05-10T19:41:14.112Z,2.67
2023-05-10T19:43:42.084Z,2.60
2023-05-10T19:46:10.093Z,2.72
2023-05-10T19:48:36.866Z,3.10
2023-05-10T19:51:06.879Z,3.38
2023-05-10T19:53:35.300Z,3.40
2023-05-10T19:56:08.655Z,2.92
2023-05-10T19:58:35.543Z,3.20
2023-05-10T20:01:02.713Z,3.20
2023-05-10T20:03:29.575Z,4.35
2023-05-10T20:05:56.345Z,5.60
2023-05-10T20:08:23.250Z,4.68
2023-05-10T20:10:49.999Z,3.90
2023-05-10T20:13:16.709Z,3.83
2023-05-10T20:15:43.693Z,3.28
2023-05-10T20:18:10.552Z,3.47
2023-05-10T20:20:37.513Z,3.42
2023-05-10T20:23:04.298Z,2.83
2023-05-10T20:25:31.612Z,3.55
2023-05-10T20:27:58.348Z,3.75
2023-05-10T20:30:25.057Z,6.95
2023-05-10T20:32:52.156Z,6.88
2023-05-10T20:35:18.926Z,5.90
2023-05-10T20:37:45.836Z,5.65
2023-05-10T20:40:12.866Z,5.30
2023-05-10T20:42:39.610Z,4.80
2023-05-10T20:45:07.537Z,4.68
2023-05-10T20:47:34.432Z,4.30
2023-05-10T20:50:01.117Z,4.20
2023-05-10T20:52:27.873Z,3.40
2023-05-10T20:54:54.586Z,3.75
2023-05-10T20:57:21.445Z,4.63
2023-05-10T20:59:50.086Z,4.03
2023-05-10T21:02:16.902Z,4.30
2023-05-10T21:04:43.673Z,3.65
2023-05-10T21:07:10.447Z,6.05
2023-05-10T21:09:37.205Z,3.30
2023-05-10T21:12:04.229Z,3.03
2023-05-10T21:14:31.367Z,3.10
2023-05-10T21:16:59.115Z,3.20
2023-05-10T21:19:25.809Z,3.25
2023-05-10T21:21:53.028Z,3.25
2023-05-10T21:24:19.767Z,2.97
2023-05-10T21:26:46.474Z,4.25
2023-05-10T21:29:13.153Z,7.30
2023-05-10T21:31:39.928Z,6.40
2023-05-10T21:34:07.060Z,5.18
2023-05-10T21:36:33.898Z,4.97
2023-05-10T21:39:00.719Z,3.92
2023-05-10T21:41:27.464Z,3.65
2023-05-10T21:43:54.223Z,3.40
2023-05-10T21:46:20.968Z,4.22
2023-05-10T21:48:47.773Z,3.90
2023-05-10T21:51:14.742Z,4.15
2023-05-10T21:53:41.591Z,4.07
2023-05-10T21:56:10.068Z,3.80
2023-05-10T21:58:36.906Z,4.07
2023-05-10T22:01:03.916Z,4.00
2023-05-10T22:03:30.936Z,3.80
2023-05-10T22:05:57.647Z,3.95
2023-05-10T22:08:24.388Z,4.43
2023-05-10T22:10:52.447Z,3.88
2023-05-10T22:13:19.239Z,3.85
2023-05-10T22:15:46.433Z,4.15
2023-05-10T22:18:13.209Z,4.38
2023-05-10T22:20:40.221Z,4.40
2023-05-10T22:23:07.082Z,4.10
2023-05-10T22:25:33.829Z,3.28
2023-05-10T22:28:00.522Z,3.45
2023-05-10T22:30:27.282Z,3.08
2023-05-10T22:32:54.488Z,3.65
2023-05-10T22:35:21.883Z,3.13
2023-05-10T22:37:48.657Z,3.75
2023-05-10T22:40:15.703Z,3.38
2023-05-10T22:42:42.734Z,3.03
2023-05-10T22:45:10.188Z,3.30
2023-05-10T22:47:37.128Z,3.83
2023-05-10T22:50:04.475Z,3.50
2023-05-10T22:52:31.255Z,3.60
2023-05-10T22:54:57.951Z,3.80
2023-05-10T22:57:24.909Z,4.00
2023-05-10T22:59:52.619Z,4.05
2023-05-10T23:02:22.312Z,4.22
2023-05-10T23:04:49.462Z,4.25
2023-05-10T23:07:16.310Z,4.57
2023-05-10T23:09:42.998Z,5.97
2023-05-10T23:12:09.675Z,6.25
2023-05-10T23:14:36.428Z,4.63
2023-05-10T23:17:03.353Z,4.15
2023-05-10T23:19:30.372Z,4.85
2023-05-10T23:21:57.112Z,5.05
2023-05-10T23:24:23.848Z,5.55
2023-05-10T23:26:50.695Z,5.80
2023-05-10T23:29:17.556Z,5.57
2023-05-10T23:31:46.565Z,5.95
2023-05-10T23:34:13.253Z,6.55
2023-05-10T23:36:39.974Z,6.45
2023-05-10T23:39:08.598Z,6.90
2023-05-10T23:41:35.326Z,7.25
2023-05-10T23:44:02.821Z,6.90
2023-05-10T23:46:29.725Z,7.43
2023-05-10T23:48:56.401Z,7.97
2023-05-10T23:51:23.185Z,8.02
2023-05-10T23:53:49.891Z,7.88
2023-05-10T23:56:16.654Z,7.72
2023-05-10T23:58:43.339Z,7.85
